Aviation Digital Data Service (ADDS)

Output produced by METARs form (1200 UTC 26 March 2019)
found at http://www.aviationweather.gov/metar/data/
 
EFET 261150Z AUTO 31007KT 270V350 CAVOK M03/M11 Q1010
EFHA 261150Z 34014KT CAVOK 01/M13 Q1010
TAF EFHA 261136Z 2612/2614 33012KT CAVOK
       
EFHK 261150Z 33015KT 9999 FEW047 02/M09 Q1009 NOSIG
TAF EFHK 261126Z 2612/2712 33016KT 9999 FEW047 
     PROB40 
     TEMPO 2612/2615 34015G26KT 
     BECMG 2616/2618 33005KT
       
EFIV 261150Z 32009KT 290V350 9999 FEW033 M01/M09 Q1009
TAF EFIV 261143Z 2612/2618 25007KT 9999 FEW035
       
EFJO 261150Z AUTO 33011KT 290V020 9999 BKN030 M01/M07 Q1006
TAF EFJO 261128Z 2612/2621 34012KT 9999 BKN035 
     TEMPO 2612/2615 4000 -SHSN SCT035TCU
       
EFJY 261150Z 34014KT 9999 FEW040 01/M12 Q1009
TAF EFJY 261136Z 2612/2712 01012KT CAVOK 
     BECMG 2619/2621 31007KT
       
EFKI 261150Z 33009KT 300V360 CAVOK M00/M11 Q1008
TAF EFKI 261128Z 2612/2621 33007KT CAVOK
       
EFKE 261150Z AUTO 36010KT CAVOK 00/M10 Q1011
TAF EFKE 261143Z 2612/2621 36008KT CAVOK
       
EFKT 261150Z 34007KT 300V030 9999 FEW038 M01/M10 Q1010
TAF EFKT 261143Z 2612/2621 34010KT 9999 FEW040
       
EFKK 261150Z 35010KT CAVOK M02/M06 Q1013
TAF EFKK 261136Z 2612/2621 33007KT CAVOK
       
EFKU 261150Z 35012KT 9999 SCT048 00/M10 Q1008
TAF EFKU 261128Z 2612/2712 35012KT 9999 BKN040 
     TEMPO 2612/2615 FEW035TCU 
     BECMG 2700/2702 27003KT
       
EFKS 261150Z AUTO 32012KT 9999 BKN030 M02/M09 Q1007
TAF EFKS 261143Z 2612/2621 32008KT 9999 FEW040 
     TEMPO 2612/2615 FEW040TCU
       
EFLP 261150Z AUTO 35009KT 290V020 9999 BKN027 00/M06 Q1005
TAF EFLP 260829Z 2609/2611 32009KT 7000 -SN BKN025 
     TEMPO 2609/2611 33012G22KT 2000 SN BKN012
       
EFMA 261150Z AUTO 34010KT 300V020 9999 FEW038 05/M04 Q1014
TAF EFMA 261126Z 2612/2621 36010KT 9999 FEW037 
     BECMG 2619/2621 24003KT
       
EFMI 261150Z AUTO VRB08KT 9999 OVC026 M00/M06 Q1008
EFOU 261150Z AUTO 31010KT CAVOK M02/M06 Q1011
TAF EFOU 261143Z 2612/2712 32008KT CAVOK 
     BECMG 2707/2709 20010KT 
     BECMG 2710/2712 2500 -SN
       
EFPO 261150Z AUTO 35010KT CAVOK 04/M14 Q1013
TAF EFPO 261136Z 2612/2621 35007KT CAVOK
       
EFRO 261150Z 32008KT 9999 FEW032 M02/M10 Q1010
TAF EFRO 261143Z 2612/2712 33009KT 9999 FEW035 
     BECMG 2707/2709 20013KT 3000 -SN BKN010 
     TEMPO 2709/2712 21018G28KT 1300 SN BKN007
       
EFSA 261150Z 34009KT 310V040 9999 SCT035 BKN051 00/M07 Q1006
TAF EFSA 261128Z 2612/2619 34011KT 9999 BKN030 
     TEMPO 2612/2615 4000 -SHSN SCT030TCU
       
EFSI 261150Z AUTO 36010KT 310V040 CAVOK 02/M10 Q1012
EFTP 261150Z 01009KT CAVOK 02/M13 Q1011
TAF EFTP 261136Z 2612/2712 01009KT CAVOK
       
EFTU 261150Z AUTO 35008KT 310V030 CAVOK 04/M11 Q1011
TAF EFTU 261126Z 2612/2712 36010KT CAVOK 
     BECMG 2701/2702 10001KT 
     PROB30 2702/2706 1200 BR
       
EFUT 261150Z 34009KT 290V040 9999 -SN BKN020 M01/M05 Q1007
TAF EFUT 261128Z 2612/2619 33009KT 9999 BKN020 
     TEMPO 2612/2614 34013G24KT 2500 -SN BKN012 
     PROB40 
     TEMPO 2614/2616 6000 -SHSN SCT030TCU
       
EFVA 261150Z AUTO 34011KT 9999 ///////// 00/M05 Q1014
TAF EFVA 261136Z 2612/2712 33008KT CAVOK